Terminal Aerodrome Forecast
Issued by NWS

Home | Current Version | Previous Version | Graphics & Text | Print | Product List | Glossary On
Versions: 1 2 3 4 5 6 7 8 9 10 11 12 13 14 15 16 17 18 19 20 21
000
FTUS43 KGRB 301505 AAA
TAFAUW
TAF AMD
KAUW 301505Z 3015/3112 21005KT 6SM BR SCT006 BKN017
      TEMPO 3016/3018 P6SM NSW BKN006
     FM301800 21007KT P6SM BKN015
     FM302000 21007KT P6SM SCT025
     FM310100 19003KT P6SM SKC
     FM310700 21004KT 5SM BR BKN005=

USA.gov is the U.S. government's official web portal to all federal, state and local government web resources and services.